MROC/SJO METAR and TAF weather

Enter ICAO airport designator
Station Type Date Time Source
MROC METAR 2021/01/27 13:00 UTC NOAA

MROC 271300Z 08008KT CAVOK 19/14 A2999 NOSIG


Station Type Date Time Source
MROC Decoded METAR 2021/01/27 13:00 UTC NOAA

Juan Santamaria, Costa Rica (MROC) 10-00N 084-13W 939M
Jan 27, 2021 - 08:00 AM EST / 2021.01.27 1300 UTC
Wind: from the E (080 degrees) at 9 MPH (8 KT):0
Visibility: greater than 7 mile(s):0
Temperature: 66 F (19 C)
Dew Point: 57 F (14 C)
Relative Humidity: 72%
Pressure (altimeter): 29.99 in. Hg (1015 hPa)
ob: MROC 271300Z 08008KT CAVOK 19/14 A2999 NOSIG
cycle: 13

Station Type Date Time Source
MROC TAF 2021/01/27 12:06 UTC NOAA

TAF MROC 271100Z 2712/2812 11011KT 9999 FEW040 TX30/2719Z TN18/2810Z

Example: see airport list